首页
METAR-TAF:

METAR-TAF

机场 :

巴林国际机场

巴林, 巴林

纬度: 26-16N, 经度: 050-39E, 海拔: 2米

当前天气观测

该预报发布于32分钟前的11:00 UTC
风速8节,风向,在东转东南南转西南之间变化
温度 24°C
湿度 29%
气压 1018 hPa
能見度: 5000
浮尘

METAR: OBBI 241100Z 17008KT 120V200 5000 DU NSC 24/05 Q1018 NOSIG

时间: 14:32 (11:32 UTC)

预报

该预报发布于6小时和32分钟前的05:00 UTC
预报有效从24日的 06点(UTC)到 25日的 12点(UTC)
风速10节,风向东南
能見度: 7000
几率 30% :
短暂存在
从 25日的 00点(UTC)到 25日的 05点(UTC)
能見度: 5000

TAF: OBBI 240500Z 2406/2512 14010KT 7000 NSC PROB30 TEMPO 2500/2505 5000 HZ

超过4000个机场的气象观测和天气预报(METAR&TAF报告)。

可查询的气象台以黄色和红色小点在地图上表示。

将鼠标移到小点上方,可查看气象台名称。

然后点击查看天气观测和预报。

如需切换地图:点击带黑十字的绿色按钮放大地图;点击带横线的绿色按钮缩小地图;或者点击绿色箭头查看邻近地区的地图。


METAR-TAF: